createdAt,value
2019-04-29T00:00:19.041Z,19.87
2019-04-29T00:02:49.253Z,22.30
2019-04-29T00:05:17.589Z,22.37
2019-04-29T00:07:45.921Z,21.17
2019-04-29T00:10:15.929Z,19.93
2019-04-29T00:12:44.214Z,20.23
2019-04-29T00:15:14.515Z,18.23
2019-04-29T00:17:44.549Z,20.00
2019-04-29T00:20:14.554Z,18.20
2019-04-29T00:22:42.777Z,17.20
2019-04-29T00:25:11.140Z,17.63
2019-04-29T00:27:39.635Z,21.57
2019-04-29T00:30:09.781Z,20.77
2019-04-29T00:32:38.222Z,21.53
2019-04-29T00:35:07.130Z,22.20
2019-04-29T00:37:36.981Z,22.07
2019-04-29T00:40:07.129Z,20.10
2019-04-29T00:42:37.000Z,21.93
2019-04-29T00:45:06.393Z,21.33
2019-04-29T00:47:34.899Z,22.23
2019-04-29T00:50:04.388Z,23.73
2019-04-29T00:52:32.712Z,19.70
2019-04-29T00:55:02.561Z,19.10
2019-04-29T00:57:30.797Z,21.23
2019-04-29T01:00:00.249Z,21.77
2019-04-29T01:02:28.821Z,18.57
2019-04-29T01:04:57.258Z,20.20
2019-04-29T01:07:25.673Z,17.07
2019-04-29T01:09:54.041Z,20.33
2019-04-29T01:12:22.401Z,18.87
2019-04-29T01:14:50.889Z,20.97
2019-04-29T01:17:19.513Z,17.97
2019-04-29T01:19:47.673Z,23.07
2019-04-29T01:22:16.033Z,22.07
2019-04-29T01:24:44.341Z,18.30
2019-04-29T01:27:14.226Z,20.73
2019-04-29T01:29:42.592Z,20.80
2019-04-29T01:32:10.860Z,20.50
2019-04-29T01:34:40.833Z,19.73
2019-04-29T01:37:09.160Z,20.07
2019-04-29T01:39:39.142Z,20.40
2019-04-29T01:42:09.001Z,20.90
2019-04-29T01:44:37.289Z,19.70
2019-04-29T01:47:05.661Z,20.10
2019-04-29T01:49:33.886Z,18.40
2019-04-29T01:52:02.205Z,23.73
2019-04-29T01:54:30.654Z,20.37
2019-04-29T01:56:59.049Z,19.87
2019-04-29T01:59:27.341Z,18.67
2019-04-29T02:01:55.727Z,22.03
2019-04-29T02:04:24.179Z,18.63
2019-04-29T02:06:52.609Z,22.03
2019-04-29T02:09:22.552Z,20.27
2019-04-29T02:11:50.901Z,22.33
2019-04-29T02:14:19.157Z,18.87
2019-04-29T02:16:47.778Z,21.90
2019-04-29T02:19:17.088Z,19.63
2019-04-29T02:21:47.061Z,19.73
2019-04-29T02:24:17.207Z,18.67
2019-04-29T02:26:45.866Z,19.10
2019-04-29T02:29:14.225Z,21.10
2019-04-29T02:31:43.858Z,19.57
2019-04-29T02:34:12.150Z,19.80
2019-04-29T02:36:40.645Z,19.27
2019-04-29T02:39:11.302Z,20.50
2019-04-29T02:41:41.231Z,20.97
2019-04-29T02:44:11.128Z,20.93
2019-04-29T02:46:39.447Z,20.90
2019-04-29T02:49:07.953Z,20.63
2019-04-29T02:51:39.314Z,21.50
2019-04-29T02:54:07.568Z,23.90
2019-04-29T02:56:35.944Z,19.37
2019-04-29T02:59:05.899Z,18.80
2019-04-29T03:01:35.790Z,20.83
2019-04-29T03:04:05.713Z,21.10
2019-04-29T03:06:34.125Z,20.20
2019-04-29T03:09:02.536Z,20.53
2019-04-29T03:11:32.542Z,24.07
2019-04-29T03:14:00.850Z,21.73
2019-04-29T03:16:29.136Z,20.67
2019-04-29T03:18:59.181Z,24.13
2019-04-29T03:21:29.093Z,19.97
2019-04-29T03:23:57.408Z,24.40
2019-04-29T03:26:25.731Z,22.80
2019-04-29T03:28:54.073Z,24.23
2019-04-29T03:31:22.486Z,19.50
2019-04-29T03:33:50.709Z,24.07
2019-04-29T03:36:19.132Z,21.63
2019-04-29T03:38:47.474Z,22.80
2019-04-29T03:41:15.648Z,20.73
2019-04-29T03:43:44.064Z,25.93
2019-04-29T03:46:12.350Z,25.00
2019-04-29T03:48:40.694Z,21.27
2019-04-29T03:51:09.029Z,24.20
2019-04-29T03:53:37.341Z,24.17
2019-04-29T03:56:05.770Z,25.00
2019-04-29T03:58:34.140Z,24.83
2019-04-29T04:01:04.189Z,24.33
2019-04-29T04:03:34.201Z,26.07
2019-04-29T04:06:04.186Z,27.70
2019-04-29T04:08:34.167Z,27.60
2019-04-29T04:11:02.409Z,27.40
2019-04-29T04:13:30.865Z,26.67
2019-04-29T04:15:59.371Z,25.83
2019-04-29T04:18:29.201Z,27.73
2019-04-29T04:20:57.541Z,25.37
2019-04-29T04:23:25.917Z,27.83
2019-04-29T04:25:54.222Z,26.50
2019-04-29T04:28:22.789Z,25.27
2019-04-29T04:30:51.158Z,28.40
2019-04-29T04:33:19.381Z,25.93
2019-04-29T04:35:47.661Z,23.30
2019-04-29T04:38:15.900Z,23.90
2019-04-29T04:40:45.922Z,26.03
2019-04-29T04:43:14.287Z,23.40
2019-04-29T04:45:42.676Z,25.57
2019-04-29T04:48:11.049Z,25.00
2019-04-29T04:50:39.474Z,28.23
2019-04-29T04:53:07.911Z,26.93
2019-04-29T04:55:37.832Z,25.17
2019-04-29T04:58:06.208Z,25.10
2019-04-29T05:00:36.258Z,25.63
2019-04-29T05:03:04.580Z,25.77
2019-04-29T05:05:32.984Z,24.53
2019-04-29T05:08:01.375Z,26.77
2019-04-29T05:10:29.822Z,26.13
2019-04-29T05:12:58.250Z,30.77
2019-04-29T05:15:26.929Z,26.17
2019-04-29T05:17:55.321Z,33.83
2019-04-29T05:20:23.747Z,31.27
2019-04-29T05:22:53.652Z,39.20
2019-04-29T05:25:22.014Z,92.93
2019-04-29T05:27:50.475Z,33.83
2019-04-29T05:30:18.735Z,29.20
2019-04-29T05:32:47.101Z,35.07
2019-04-29T05:35:17.080Z,34.67
2019-04-29T05:37:48.613Z,34.97
2019-04-29T05:40:18.593Z,29.97
2019-04-29T05:42:48.285Z,36.30
2019-04-29T05:45:18.419Z,39.93
2019-04-29T05:47:52.301Z,39.57
2019-04-29T05:50:20.201Z,33.07
2019-04-29T05:52:50.041Z,34.27
2019-04-29T05:55:18.376Z,36.17
2019-04-29T08:05:01.111Z,60.90
2019-04-29T08:07:29.781Z,61.58
2019-04-29T08:09:58.168Z,104.75
2019-04-29T08:12:26.780Z,75.52
2019-04-29T08:14:58.536Z,53.85
2019-04-29T08:17:25.209Z,53.17
2019-04-29T08:32:39.071Z,49.13
2019-04-29T08:35:07.470Z,37.88
2019-04-29T08:37:35.869Z,36.28
2019-04-29T08:40:16.058Z,36.03
2019-04-29T08:42:41.383Z,38.13
2019-04-29T08:45:09.464Z,39.10
2019-04-29T08:47:39.612Z,36.77
2019-04-29T08:50:08.068Z,40.17
2019-04-29T08:52:36.810Z,41.00
2019-04-29T08:55:05.276Z,37.33
2019-04-29T08:57:36.529Z,38.30
2019-04-29T09:00:05.114Z,43.13
2019-04-29T09:02:35.582Z,38.23
2019-04-29T09:05:06.845Z,38.20
2019-04-29T09:07:35.895Z,35.80
2019-04-29T09:10:06.005Z,34.23
2019-04-29T09:12:34.346Z,19.10
2019-04-29T09:15:02.965Z,32.48
2019-04-29T09:17:32.466Z,33.83
2019-04-29T09:20:00.965Z,36.20
2019-04-29T09:22:31.449Z,33.40
2019-04-29T09:25:01.435Z,31.12
2019-04-29T09:27:29.792Z,34.85
2019-04-29T09:29:58.874Z,33.75
2019-04-29T09:32:28.783Z,33.48
2019-04-29T09:34:59.465Z,34.43
2019-04-29T09:37:27.310Z,33.10
2019-04-29T09:39:55.758Z,35.80
2019-04-29T09:42:25.663Z,33.28
2019-04-29T09:44:55.568Z,33.28
2019-04-29T09:47:24.035Z,33.25
2019-04-29T09:49:52.547Z,34.45
2019-04-29T09:52:20.888Z,25.17
2019-04-29T09:54:49.176Z,24.35
2019-04-29T09:57:18.642Z,40.50
2019-04-29T09:59:48.748Z,36.60
2019-04-29T10:02:18.805Z,22.32
2019-04-29T10:04:56.277Z,33.95
2019-04-29T10:07:19.011Z,31.52
2019-04-29T10:09:57.162Z,32.53
2019-04-29T10:12:17.507Z,28.73
2019-04-29T10:14:45.827Z,20.30
2019-04-29T10:17:16.673Z,31.27
2019-04-29T10:19:46.898Z,27.30
2019-04-29T10:22:15.248Z,24.60
2019-04-29T10:24:43.867Z,28.65
2019-04-29T10:27:12.265Z,27.60
2019-04-29T10:29:42.272Z,29.27
2019-04-29T10:32:11.226Z,25.45
2019-04-29T10:34:42.882Z,29.40
2019-04-29T10:37:10.031Z,26.73
2019-04-29T10:39:43.358Z,28.07
2019-04-29T10:42:13.502Z,19.27
2019-04-29T10:44:44.524Z,22.87
2019-04-29T10:47:14.626Z,25.40
2019-04-29T10:49:44.682Z,15.60
2019-04-29T10:52:13.446Z,31.20
2019-04-29T10:54:41.774Z,19.55
2019-04-29T10:57:10.523Z,24.47
2019-04-29T10:59:45.022Z,18.40
2019-04-29T11:02:15.933Z,22.27
2019-04-29T11:04:47.129Z,30.12
2019-04-29T11:07:19.121Z,17.27
2019-04-29T11:09:50.700Z,27.87
2019-04-29T11:12:19.318Z,23.10
2019-04-29T11:14:47.708Z,23.22
2019-04-29T11:17:16.860Z,15.23
2019-04-29T11:19:45.521Z,18.85
2019-04-29T11:22:15.495Z,28.98
2019-04-29T11:24:45.522Z,22.70
2019-04-29T11:27:15.475Z,21.20
2019-04-29T11:29:43.969Z,21.68
2019-04-29T11:32:14.156Z,26.17
2019-04-29T11:34:48.474Z,14.47
2019-04-29T11:37:17.761Z,14.80
2019-04-29T11:39:46.205Z,24.47
2019-04-29T11:42:15.696Z,23.70
2019-04-29T11:44:44.157Z,18.60
2019-04-29T11:47:12.559Z,24.25
2019-04-29T11:49:42.563Z,18.02
2019-04-29T11:52:10.829Z,15.08
2019-04-29T11:54:39.251Z,16.12
2019-04-29T11:57:09.148Z,22.45
2019-04-29T11:59:39.271Z,21.65
2019-04-29T12:02:09.250Z,24.07
2019-04-29T12:04:41.937Z,20.27
2019-04-29T12:07:09.367Z,22.42
2019-04-29T12:09:37.989Z,21.52
2019-04-29T12:12:07.918Z,23.77
2019-04-29T12:14:39.147Z,28.30
2019-04-29T12:17:09.368Z,34.95
2019-04-29T12:19:39.263Z,78.02
2019-04-29T12:22:10.488Z,64.67
2019-04-29T12:24:39.047Z,75.45
2019-04-29T12:27:08.475Z,24.80
2019-04-29T12:29:36.807Z,147.00
2019-04-29T12:32:06.941Z,123.42
2019-04-29T12:34:36.831Z,128.00
2019-04-29T12:37:06.932Z,83.78
2019-04-29T12:39:43.574Z,20.32
2019-04-29T12:42:08.639Z,18.50
2019-04-29T12:44:40.023Z,21.52
2019-04-29T12:47:10.356Z,18.10
2019-04-29T12:49:42.324Z,15.63
2019-04-29T12:52:08.903Z,19.80
2019-04-29T12:54:37.295Z,19.67
2019-04-29T12:57:05.786Z,16.37
2019-04-29T12:59:35.408Z,10.18
2019-04-29T13:02:06.123Z,16.85
2019-04-29T13:04:36.147Z,12.33
2019-04-29T13:07:06.896Z,13.83
2019-04-29T13:09:37.180Z,13.45
2019-04-29T13:12:19.203Z,14.10
2019-04-29T13:14:39.174Z,20.37
2019-04-29T13:17:14.878Z,37.63
2019-04-29T13:19:40.743Z,18.02
2019-04-29T13:22:10.601Z,15.80
2019-04-29T13:24:42.780Z,12.23
2019-04-29T13:27:16.011Z,15.28
2019-04-29T13:29:39.185Z,12.33
2019-04-29T13:32:07.764Z,15.48
2019-04-29T13:34:37.680Z,15.68
2019-04-29T13:37:08.045Z,18.48
2019-04-29T13:39:39.783Z,93.52
2019-04-29T13:42:09.202Z,12.30
2019-04-29T13:44:42.043Z,16.93
2019-04-29T13:47:08.388Z,30.77
2019-04-29T13:49:38.629Z,18.62
2019-04-29T13:52:07.077Z,11.95
2019-04-29T13:54:37.299Z,18.12
2019-04-29T13:57:09.632Z,17.92
2019-04-29T13:59:42.025Z,13.58
2019-04-29T14:02:10.835Z,12.13
2019-04-29T14:04:40.957Z,15.38
2019-04-29T14:07:09.346Z,162.25
2019-04-29T14:09:39.219Z,205.10
2019-04-29T14:12:46.462Z,173.35
2019-04-29T14:14:38.107Z,15.65
2019-04-29T14:17:24.868Z,17.00
2019-04-29T14:19:42.531Z,14.65
2019-04-29T14:22:20.954Z,13.35
2019-04-29T14:24:38.127Z,12.70
2019-04-29T14:27:06.377Z,18.65
2019-04-29T14:29:34.660Z,16.77
2019-04-29T14:32:03.215Z,16.95
2019-04-29T14:34:34.932Z,16.90
2019-04-29T14:37:19.598Z,16.48
2019-04-29T14:39:37.183Z,16.62
2019-04-29T14:42:04.875Z,18.25
2019-04-29T14:44:35.011Z,18.50
2019-04-29T14:47:05.023Z,16.93
2019-04-29T14:49:35.397Z,18.62
2019-04-29T14:52:08.289Z,25.85
2019-04-29T14:54:36.837Z,29.87
2019-04-29T14:57:09.090Z,164.90
2019-04-29T14:59:36.594Z,49.35
2019-04-29T15:02:06.798Z,17.48
2019-04-29T15:04:36.695Z,19.02
2019-04-29T15:07:06.419Z,11.73
2019-04-29T15:09:46.386Z,29.92
2019-04-29T15:12:07.989Z,89.55
2019-04-29T15:14:37.972Z,13.62
2019-04-29T15:17:08.311Z,11.10
2019-04-29T15:19:38.347Z,13.15
2019-04-29T15:22:08.357Z,12.98
2019-04-29T15:24:36.623Z,10.48
2019-04-29T15:27:05.302Z,11.22
2019-04-29T15:29:33.735Z,10.63
2019-04-29T15:32:02.510Z,10.63
2019-04-29T15:34:30.809Z,13.55
2019-04-29T15:36:59.330Z,12.65
2019-04-29T15:39:27.764Z,10.35
2019-04-29T15:41:56.170Z,10.45
2019-04-29T15:44:24.582Z,10.63
2019-04-29T15:46:52.995Z,10.53
2019-04-29T15:49:24.571Z,9.43
2019-04-29T15:51:51.349Z,11.78
2019-04-29T15:54:19.674Z,11.73
2019-04-29T15:56:48.558Z,13.30
2019-04-29T15:59:17.195Z,12.58
2019-04-29T16:01:45.628Z,13.78
2019-04-29T16:04:15.604Z,12.10
2019-04-29T16:06:43.672Z,10.30
2019-04-29T16:09:13.635Z,9.93
2019-04-29T16:11:45.263Z,10.28
2019-04-29T16:14:15.222Z,11.10
2019-04-29T16:16:43.564Z,9.40
2019-04-29T16:19:11.920Z,10.08
2019-04-29T16:21:41.736Z,11.78
2019-04-29T16:24:25.711Z,10.05
2019-04-29T16:26:41.114Z,10.75
2019-04-29T16:29:13.203Z,10.38
2019-04-29T16:31:39.453Z,11.38
2019-04-29T16:34:07.932Z,9.40
2019-04-29T16:36:36.267Z,11.30
2019-04-29T16:39:05.897Z,12.13
2019-04-29T16:41:35.615Z,10.78
2019-04-29T16:44:04.953Z,10.60
2019-04-29T16:46:37.642Z,10.65
2019-04-29T16:49:04.079Z,12.15
2019-04-29T16:51:32.612Z,10.78
2019-04-29T16:54:00.931Z,9.98
2019-04-29T16:56:29.274Z,10.85
2019-04-29T16:58:57.786Z,11.95
2019-04-29T17:01:26.216Z,10.43
2019-04-29T17:03:54.514Z,10.70
2019-04-29T17:06:22.837Z,10.98
2019-04-29T17:09:03.045Z,11.28
2019-04-29T17:11:22.700Z,12.58
2019-04-29T17:13:51.218Z,12.65
2019-04-29T17:16:20.666Z,13.28
2019-04-29T17:18:48.974Z,10.25
2019-04-29T17:21:17.358Z,13.78
2019-04-29T17:23:45.783Z,16.87
2019-04-29T17:26:15.330Z,15.55
2019-04-29T17:28:45.703Z,13.98
2019-04-29T17:31:16.863Z,14.70
2019-04-29T17:33:50.531Z,13.30
2019-04-29T17:36:23.654Z,15.40
2019-04-29T17:38:49.264Z,15.20
2019-04-29T17:41:17.878Z,14.40
2019-04-29T17:43:47.856Z,14.35
2019-04-29T17:46:17.867Z,13.93
2019-04-29T17:48:48.579Z,12.75
2019-04-29T17:51:18.085Z,14.43
2019-04-29T17:53:48.196Z,13.65
2019-04-29T17:56:18.254Z,14.25
2019-04-29T17:58:51.652Z,13.00
2019-04-29T18:01:19.870Z,12.65
2019-04-29T18:03:49.806Z,13.10
2019-04-29T18:06:24.332Z,15.93
2019-04-29T18:08:49.627Z,15.70
2019-04-29T18:11:18.261Z,15.38
2019-04-29T18:13:46.807Z,13.03
2019-04-29T18:16:19.111Z,11.80
2019-04-29T18:18:53.460Z,15.48
2019-04-29T18:21:19.345Z,14.33
2019-04-29T18:23:51.559Z,15.25
2019-04-29T18:26:20.923Z,20.32
2019-04-29T18:28:49.502Z,21.42
2019-04-29T18:31:17.973Z,17.50
2019-04-29T18:33:46.269Z,19.12
2019-04-29T18:36:23.724Z,26.10
2019-04-29T18:38:47.540Z,30.25
2019-04-29T18:41:24.268Z,42.58
2019-04-29T18:43:45.217Z,27.17
2019-04-29T18:46:14.848Z,28.70
2019-04-29T18:48:45.579Z,33.20
2019-04-29T18:51:15.297Z,28.03
2019-04-29T18:53:43.739Z,25.83
2019-04-29T18:56:12.052Z,23.23
2019-04-29T18:58:42.116Z,26.27
2019-04-29T19:01:11.666Z,26.73
2019-04-29T19:03:41.783Z,22.27
2019-04-29T19:06:11.311Z,20.03
2019-04-29T19:08:40.283Z,23.57
2019-04-29T19:11:08.786Z,21.13
2019-04-29T19:13:37.074Z,18.03
2019-04-29T19:16:10.175Z,18.27
2019-04-29T19:18:35.624Z,17.30
2019-04-29T19:21:04.028Z,16.60
2019-04-29T19:23:32.548Z,16.97
2019-04-29T19:26:00.910Z,17.93
2019-04-29T19:28:31.113Z,16.50
2019-04-29T19:31:03.018Z,13.83
2019-04-29T19:33:30.707Z,14.57
2019-04-29T19:35:59.276Z,17.10
2019-04-29T19:38:27.624Z,14.60
2019-04-29T19:40:55.866Z,14.00
2019-04-29T19:43:26.875Z,14.50
2019-04-29T19:45:57.408Z,10.00
2019-04-29T19:48:26.993Z,12.17
2019-04-29T19:51:13.942Z,12.63
2019-04-29T19:53:25.358Z,12.07
2019-04-29T19:56:03.552Z,11.87
2019-04-29T19:58:29.796Z,18.23
2019-04-29T20:00:57.269Z,13.23
2019-04-29T20:03:35.171Z,15.37
2019-04-29T20:06:07.712Z,17.93
2019-04-29T20:08:46.578Z,15.37
2019-04-29T20:10:58.204Z,14.80
2019-04-29T20:13:31.702Z,14.07
2019-04-29T20:16:09.547Z,13.03
2019-04-29T20:18:35.718Z,17.17
2019-04-29T20:21:08.690Z,12.20
2019-04-29T20:23:36.211Z,14.67
2019-04-29T20:26:13.952Z,12.43
2019-04-29T20:28:31.650Z,11.03
2019-04-29T20:31:15.379Z,10.53
2019-04-29T20:33:30.322Z,17.27
2019-04-29T20:36:02.189Z,12.33
2019-04-29T20:38:29.839Z,13.33
2019-04-29T20:40:59.459Z,12.33
2019-04-29T20:43:29.920Z,13.77
2019-04-29T20:46:02.261Z,13.93
2019-04-29T20:48:31.487Z,13.57
2019-04-29T20:51:10.626Z,11.33
2019-04-29T20:53:37.852Z,12.83
2019-04-29T20:56:11.977Z,16.40
2019-04-29T20:58:36.049Z,18.70
2019-04-29T21:01:10.915Z,17.23
2019-04-29T21:03:45.365Z,18.33
2019-04-29T21:06:11.659Z,16.97
2019-04-29T21:08:39.955Z,10.93
2019-04-29T21:11:14.280Z,17.43
2019-04-29T21:13:41.578Z,16.50
2019-04-29T21:16:11.500Z,17.87
2019-04-29T21:18:39.708Z,11.90
2019-04-29T21:21:08.039Z,11.53
2019-04-29T21:23:36.713Z,11.60
2019-04-29T21:26:08.698Z,11.57
2019-04-29T21:28:41.181Z,15.60
2019-04-29T21:31:07.084Z,8.67
2019-04-29T21:33:35.672Z,16.63
2019-04-29T21:36:05.923Z,11.13
2019-04-29T21:38:36.090Z,9.10
2019-04-29T21:41:06.248Z,14.60
2019-04-29T21:43:36.087Z,11.67
2019-04-29T21:46:05.724Z,12.23
2019-04-29T21:48:36.837Z,9.73
2019-04-29T21:51:06.889Z,13.77
2019-04-29T21:53:38.823Z,12.90
2019-04-29T21:56:09.170Z,11.80
2019-04-29T21:58:34.624Z,13.20
2019-04-29T22:01:04.979Z,13.80
2019-04-29T22:03:36.574Z,12.77
2019-04-29T22:06:05.082Z,15.87
2019-04-29T22:08:35.501Z,16.40
2019-04-29T22:11:05.245Z,14.27
2019-04-29T22:13:35.528Z,13.33
2019-04-29T22:16:05.154Z,14.30
2019-04-29T22:18:35.567Z,15.73
2019-04-29T22:21:06.584Z,15.50
2019-04-29T22:23:35.242Z,14.43
2019-04-29T22:26:05.177Z,16.53
2019-04-29T22:28:35.087Z,15.80
2019-04-29T22:31:05.374Z,12.03
2019-04-29T22:33:34.914Z,15.43
2019-04-29T22:36:05.301Z,11.57
2019-04-29T22:38:35.867Z,13.37
2019-04-29T22:41:06.692Z,12.47
2019-04-29T22:43:40.266Z,16.60
2019-04-29T22:46:09.349Z,18.53
2019-04-29T22:48:40.632Z,15.53
2019-04-29T22:51:10.177Z,15.50
2019-04-29T22:53:40.123Z,9.40
2019-04-29T22:56:09.002Z,14.70
2019-04-29T22:58:39.501Z,15.33
2019-04-29T23:01:08.565Z,15.43
2019-04-29T23:03:37.914Z,12.67
2019-04-29T23:06:08.527Z,16.00
2019-04-29T23:08:38.152Z,23.87
2019-04-29T23:11:07.802Z,20.00
2019-04-29T23:13:38.111Z,18.40
2019-04-29T23:16:06.311Z,20.00
2019-04-29T23:18:41.964Z,18.13
2019-04-29T23:21:06.144Z,19.00
2019-04-29T23:23:38.170Z,12.33
2019-04-29T23:26:06.164Z,18.40
2019-04-29T23:28:35.576Z,15.13
2019-04-29T23:31:04.382Z,15.20
2019-04-29T23:33:32.704Z,18.67
2019-04-29T23:36:01.080Z,14.63
2019-04-29T23:38:29.601Z,20.00
2019-04-29T23:40:58.127Z,15.53
2019-04-29T23:43:28.452Z,16.13
2019-04-29T23:46:00.390Z,14.63
2019-04-29T23:48:38.137Z,13.73
2019-04-29T23:50:58.127Z,17.03
2019-04-29T23:53:26.639Z,15.37
2019-04-29T23:55:55.598Z,18.20
2019-04-29T23:58:25.623Z,16.83
